Have a Safe July 4th! 

Flight Track Log - Related Links

Times and Time Zones

All times are in EDT time to prevent confusion due to time zone crossing. See the CTL22 flight status page for this flight to view local times or setup timezone preferences in your user account.

Time Position Orientation Groundspeed Altitude Reporting Facility
EDT Latitude Longitude Course Direction KTS MPH feet Rate Location/Type
Mon 08:10:12 PM 42.1767 -85.4422 119° Southeast 123 142 3,700  Level Chicago Center
Mon 08:11:14 PM 42.1597 -85.3944 116° Southeast 135 155 4,200 532 Climbing Chicago Center
Mon 08:12:16 PM 42.1431 -85.3475 116° Southeast 138 159 4,800 537 Climbing Chicago Center
Mon 08:13:00 PM 42.1735 -85.1896 103° East  Level Estimated
Mon 08:13:17 PM 42.1253 -85.2992 116° Southeast 142 163 5,300  Level Chicago Center
Mon 08:14:00 PM 42.1632 -85.1293 103° East  Level Estimated
Mon 08:14:19 PM 42.1047 -85.2392 115° Southeast 146 168 5,900  Level Chicago Center
Mon 08:15:21 PM 42.0878 -85.1878 114° Southeast 149 171 6,400 387 Climbing Chicago Center
Mon 08:16:23 PM 42.0675 -85.1375 119° Southeast 151 174 6,700 293 Climbing Chicago Center
Mon 08:17:24 PM 42.0492 -85.0856 115° Southeast 153 176 7,000 146 Climbing Chicago Center
Mon 08:18:26 PM 42.0306 -85.0278 113° Southeast 162 186 7,000  Level Chicago Center
Mon 08:19:28 PM 42.0122 -84.9694 113° Southeast 167 192 7,000  Level Chicago Center
Mon 08:20:30 PM 41.9928 -84.9131 115° Southeast 166 191 7,000  Level Chicago Center
Mon 08:21:31 PM 41.9656 -84.8464 119° Southeast 168 193 7,000  Level Chicago Center
Mon 08:22:33 PM 41.9481 -84.7897 113° Southeast 165 190 7,000  Level Chicago Center
Mon 08:23:35 PM 41.9289 -84.7322 114° Southeast 166 191 7,000  Level Chicago Center
Mon 08:24:37 PM 41.9106 -84.6747 113° Southeast 168 193 7,000 -48 Level Chicago Center
Mon 08:25:39 PM 41.8892 -84.6181 117° Southeast 170 196 6,900 -49 Descending Chicago Center
Mon 08:26:40 PM 41.8703 -84.5611 114° Southeast 168 193 6,900  Level Chicago Center
Mon 08:27:42 PM 41.8506 -84.5044 115° Southeast 168 193 6,900  Level Chicago Center
Mon 08:28:44 PM 41.8261 -84.4392 117° Southeast 165 190 6,900  Level Chicago Center
Mon 08:29:46 PM 41.8153 -84.3775 103° East 169 194 6,900  Level Chicago Center
Mon 08:30:48 PM 41.8133 -84.3142 92° East 170 196 6,900  Level Chicago Center
Mon 08:31:50 PM 41.8025 -84.2575 104° East 164 189 6,900 49 Level Chicago Center
Mon 08:32:51 PM 41.7964 -84.1958 98° East 164 189 7,000 10 Climbing Chicago Center
Mon 08:52:14 PM 41.6869 -82.9772 96° East 175 201 7,100 Climbing Cleveland Center
Mon 08:52:33 PM 41.6850 -82.9633 101° East 176 203 7,100  Level Cleveland Center
Mon 08:53:33 PM 41.6844 -82.8936 91° East 175 201 7,100  Level Cleveland Center
Mon 08:54:28 PM 41.6792 -82.8433 98° East 171 197 7,100  Level Cleveland Center
Mon 08:55:29 PM 41.6722 -82.7736 98° East 173 199 7,100  Level Cleveland Center
Mon 08:56:29 PM 41.6672 -82.7069 96° East 175 201 7,100  Level Cleveland Center
Mon 08:57:36 PM 41.6642 -82.6400 93° East 171 197 7,100  Level Cleveland Center
Mon 08:58:37 PM 41.6569 -82.5758 99° East 171 197 7,100  Level Cleveland Center
Mon 08:59:31 PM 41.6475 -82.5200 103° East 172 198 7,100 -157 Level Cleveland Center
Mon 09:00:32 PM 41.6403 -82.4558 99° East 173 199 6,800 -344 Descending Cleveland Center
Mon 09:01:33 PM 41.6350 -82.3889 96° East 188 216 6,400 -492 Descending Cleveland Center
Mon 09:02:34 PM 41.6322 -82.3139 93° East 184 212 5,800 -645 Descending Cleveland Center
Mon 09:03:34 PM 41.6269 -82.2472 96° East 184 212 5,100 -694 Descending Cleveland Center
Mon 09:04:35 PM 41.6236 -82.1803 94° East 178 205 4,400 -738 Descending Cleveland Center
Mon 09:05:36 PM 41.6244 -82.1164 89° East 172 198 3,600 -639 Descending Cleveland Center
Mon 09:06:37 PM 41.6253 -82.0525 89° East 166 191 3,100 -295 Descending Cleveland Center
Mon 09:07:38 PM 41.6219 -81.9942 94° East 158 182 3,000 -50 Descending Cleveland Center
Mon 09:08:38 PM 41.6247 -81.9386 86° East 148 170 3,000 -446 Level Cleveland Center
Mon 09:09:39 PM 41.6233 -81.8719 92° East 176 203 2,100 -590 Descending Cleveland Center
Mon 09:10:40 PM 41.5989 -81.8214 123° Southeast 157 181 1,800 -378 Descending Cleveland Center
Mon 09:11:46 PM 41.5639 -81.7792 138° Southeast 160 184 1,300 -248 Descending Cleveland Center
Mon 09:12:41 PM 41.5372 -81.7456 137° Southeast 150 173 1,300 -157 Level Cleveland Center
Mon 09:13:41 PM 41.5144 -81.7117 132° Southeast 92 106 1,000 -300 Descending Cleveland Center
Mon 09:15:00 PM 41.5175 -81.6833 98° East  Level Estimated
Mon 09:22:00 PM 41.5175 -81.6833 98° East  Level Estimated

Login

Don't have an account? Register now (free) for customized features, flight alerts, and more!